sensor_id;sensor_type;location;lat;lon;timestamp;P1;durP1;ratioP1;P2;durP2;ratioP2
8066;SDS011;4076;48.076;9.118;2022-10-31T00:01:33;4.87;;;2.70;;
8066;SDS011;4076;48.076;9.118;2022-10-31T00:04:01;14.17;;;3.50;;
8066;SDS011;4076;48.076;9.118;2022-10-31T00:06:27;6.80;;;2.90;;
8066;SDS011;4076;48.076;9.118;2022-10-31T00:08:54;6.73;;;3.87;;
8066;SDS011;4076;48.076;9.118;2022-10-31T00:11:24;4.70;;;3.60;;
8066;SDS011;4076;48.076;9.118;2022-10-31T00:13:50;4.53;;;2.67;;
8066;SDS011;4076;48.076;9.118;2022-10-31T00:16:16;4.07;;;2.30;;
8066;SDS011;4076;48.076;9.118;2022-10-31T00:18:43;5.37;;;2.70;;
8066;SDS011;4076;48.076;9.118;2022-10-31T00:21:12;4.67;;;2.73;;
8066;SDS011;4076;48.076;9.118;2022-10-31T00:23:37;5.93;;;2.53;;
8066;SDS011;4076;48.076;9.118;2022-10-31T00:26:03;6.07;;;3.70;;
8066;SDS011;4076;48.076;9.118;2022-10-31T00:28:30;9.77;;;3.33;;
8066;SDS011;4076;48.076;9.118;2022-10-31T00:31:07;4.60;;;2.77;;
8066;SDS011;4076;48.076;9.118;2022-10-31T00:33:34;4.90;;;2.93;;
8066;SDS011;4076;48.076;9.118;2022-10-31T00:36:01;4.77;;;2.70;;
8066;SDS011;4076;48.076;9.118;2022-10-31T00:38:27;4.67;;;2.40;;
8066;SDS011;4076;48.076;9.118;2022-10-31T00:40:53;4.20;;;2.23;;
8066;SDS011;4076;48.076;9.118;2022-10-31T00:43:19;7.43;;;3.30;;
8066;SDS011;4076;48.076;9.118;2022-10-31T00:45:44;6.83;;;2.87;;
8066;SDS011;4076;48.076;9.118;2022-10-31T00:48:10;7.03;;;4.10;;
8066;SDS011;4076;48.076;9.118;2022-10-31T00:50:36;6.60;;;3.10;;
8066;SDS011;4076;48.076;9.118;2022-10-31T00:53:02;3.30;;;2.80;;
8066;SDS011;4076;48.076;9.118;2022-10-31T00:55:27;8.33;;;3.40;;
8066;SDS011;4076;48.076;9.118;2022-10-31T00:57:53;6.80;;;3.50;;
8066;SDS011;4076;48.076;9.118;2022-10-31T01:00:18;7.70;;;2.90;;
8066;SDS011;4076;48.076;9.118;2022-10-31T01:02:44;3.60;;;3.20;;
8066;SDS011;4076;48.076;9.118;2022-10-31T01:05:09;5.97;;;3.50;;
8066;SDS011;4076;48.076;9.118;2022-10-31T01:07:36;7.10;;;4.83;;
8066;SDS011;4076;48.076;9.118;2022-10-31T01:10:03;9.80;;;3.93;;
8066;SDS011;4076;48.076;9.118;2022-10-31T01:12:35;4.30;;;2.70;;
8066;SDS011;4076;48.076;9.118;2022-10-31T01:15:01;3.27;;;2.40;;
8066;SDS011;4076;48.076;9.118;2022-10-31T01:17:27;6.70;;;2.80;;
8066;SDS011;4076;48.076;9.118;2022-10-31T01:19:53;7.60;;;4.10;;
8066;SDS011;4076;48.076;9.118;2022-10-31T01:22:18;6.13;;;3.57;;
8066;SDS011;4076;48.076;9.118;2022-10-31T01:24:44;5.83;;;3.30;;
8066;SDS011;4076;48.076;9.118;2022-10-31T01:27:09;6.50;;;4.73;;
8066;SDS011;4076;48.076;9.118;2022-10-31T01:29:35;5.50;;;2.37;;
8066;SDS011;4076;48.076;9.118;2022-10-31T01:32:00;6.33;;;2.63;;
8066;SDS011;4076;48.076;9.118;2022-10-31T01:34:26;6.10;;;2.67;;
8066;SDS011;4076;48.076;9.118;2022-10-31T01:36:51;3.47;;;3.10;;
8066;SDS011;4076;48.076;9.118;2022-10-31T01:39:17;4.77;;;3.37;;
8066;SDS011;4076;48.076;9.118;2022-10-31T01:41:45;3.67;;;2.10;;
8066;SDS011;4076;48.076;9.118;2022-10-31T01:46:44;8.00;;;3.57;;
8066;SDS011;4076;48.076;9.118;2022-10-31T01:49:17;5.90;;;3.57;;
8066;SDS011;4076;48.076;9.118;2022-10-31T01:51:57;6.20;;;3.50;;
8066;SDS011;4076;48.076;9.118;2022-10-31T01:54:27;5.77;;;2.90;;
8066;SDS011;4076;48.076;9.118;2022-10-31T01:56:56;6.40;;;3.50;;
8066;SDS011;4076;48.076;9.118;2022-10-31T01:59:24;8.27;;;4.43;;
8066;SDS011;4076;48.076;9.118;2022-10-31T02:01:52;5.33;;;3.80;;
8066;SDS011;4076;48.076;9.118;2022-10-31T02:04:19;7.87;;;3.87;;
8066;SDS011;4076;48.076;9.118;2022-10-31T02:06:53;8.30;;;3.00;;
8066;SDS011;4076;48.076;9.118;2022-10-31T02:09:23;6.47;;;3.67;;
8066;SDS011;4076;48.076;9.118;2022-10-31T02:11:54;10.00;;;3.87;;
8066;SDS011;4076;48.076;9.118;2022-10-31T02:14:22;6.40;;;3.00;;
8066;SDS011;4076;48.076;9.118;2022-10-31T02:16:50;4.63;;;2.97;;
8066;SDS011;4076;48.076;9.118;2022-10-31T02:19:18;6.37;;;2.90;;
8066;SDS011;4076;48.076;9.118;2022-10-31T02:22:20;6.37;;;3.10;;
8066;SDS011;4076;48.076;9.118;2022-10-31T02:25:35;3.80;;;2.27;;
8066;SDS011;4076;48.076;9.118;2022-10-31T02:31:01;7.67;;;3.83;;
8066;SDS011;4076;48.076;9.118;2022-10-31T02:41:57;6.30;;;3.23;;
8066;SDS011;4076;48.076;9.118;2022-10-31T02:44:30;3.03;;;2.10;;
8066;SDS011;4076;48.076;9.118;2022-10-31T02:49:40;4.50;;;2.47;;
8066;SDS011;4076;48.076;9.118;2022-10-31T02:52:28;8.20;;;3.40;;
8066;SDS011;4076;48.076;9.118;2022-10-31T02:54:55;5.90;;;3.03;;
8066;SDS011;4076;48.076;9.118;2022-10-31T02:57:33;7.50;;;3.37;;
8066;SDS011;4076;48.076;9.118;2022-10-31T03:00:03;7.07;;;4.03;;
8066;SDS011;4076;48.076;9.118;2022-10-31T03:02:37;4.40;;;2.67;;
8066;SDS011;4076;48.076;9.118;2022-10-31T03:05:27;5.50;;;2.43;;
8066;SDS011;4076;48.076;9.118;2022-10-31T03:08:21;6.30;;;3.37;;
8066;SDS011;4076;48.076;9.118;2022-10-31T03:11:01;3.57;;;2.47;;
8066;SDS011;4076;48.076;9.118;2022-10-31T03:13:32;4.07;;;2.97;;
8066;SDS011;4076;48.076;9.118;2022-10-31T03:16:11;4.63;;;3.03;;
8066;SDS011;4076;48.076;9.118;2022-10-31T03:19:08;7.40;;;3.43;;
8066;SDS011;4076;48.076;9.118;2022-10-31T03:21:38;6.00;;;3.53;;
8066;SDS011;4076;48.076;9.118;2022-10-31T03:24:18;5.40;;;3.80;;
8066;SDS011;4076;48.076;9.118;2022-10-31T03:26:47;15.87;;;2.80;;
8066;SDS011;4076;48.076;9.118;2022-10-31T03:29:16;8.80;;;3.83;;
8066;SDS011;4076;48.076;9.118;2022-10-31T03:31:49;5.47;;;2.53;;
8066;SDS011;4076;48.076;9.118;2022-10-31T03:34:22;4.43;;;2.87;;
8066;SDS011;4076;48.076;9.118;2022-10-31T03:36:52;2.90;;;2.10;;
8066;SDS011;4076;48.076;9.118;2022-10-31T03:39:21;4.90;;;3.00;;
8066;SDS011;4076;48.076;9.118;2022-10-31T03:41:58;4.30;;;3.30;;
8066;SDS011;4076;48.076;9.118;2022-10-31T03:44:29;5.10;;;2.60;;
8066;SDS011;4076;48.076;9.118;2022-10-31T03:46:57;4.70;;;2.57;;
8066;SDS011;4076;48.076;9.118;2022-10-31T03:49:22;7.60;;;2.33;;
8066;SDS011;4076;48.076;9.118;2022-10-31T03:51:55;7.07;;;4.33;;
8066;SDS011;4076;48.076;9.118;2022-10-31T03:54:43;3.83;;;2.87;;
8066;SDS011;4076;48.076;9.118;2022-10-31T03:57:27;6.17;;;2.37;;
8066;SDS011;4076;48.076;9.118;2022-10-31T04:00:20;4.73;;;3.30;;
8066;SDS011;4076;48.076;9.118;2022-10-31T04:03:05;3.10;;;2.30;;
8066;SDS011;4076;48.076;9.118;2022-10-31T04:05:35;3.53;;;2.20;;
8066;SDS011;4076;48.076;9.118;2022-10-31T04:08:03;7.97;;;4.60;;
8066;SDS011;4076;48.076;9.118;2022-10-31T04:10:33;11.70;;;4.80;;
8066;SDS011;4076;48.076;9.118;2022-10-31T04:13:03;7.50;;;3.50;;
8066;SDS011;4076;48.076;9.118;2022-10-31T04:15:32;4.30;;;2.80;;
8066;SDS011;4076;48.076;9.118;2022-10-31T04:17:59;5.87;;;3.80;;
8066;SDS011;4076;48.076;9.118;2022-10-31T04:20:35;5.20;;;3.43;;
8066;SDS011;4076;48.076;9.118;2022-10-31T04:23:02;5.40;;;3.60;;
8066;SDS011;4076;48.076;9.118;2022-10-31T04:25:29;5.80;;;3.30;;
8066;SDS011;4076;48.076;9.118;2022-10-31T04:27:54;4.20;;;2.60;;
8066;SDS011;4076;48.076;9.118;2022-10-31T04:30:20;7.90;;;4.27;;
8066;SDS011;4076;48.076;9.118;2022-10-31T04:32:46;4.20;;;2.57;;
8066;SDS011;4076;48.076;9.118;2022-10-31T04:35:11;11.60;;;3.13;;
8066;SDS011;4076;48.076;9.118;2022-10-31T04:37:37;6.10;;;4.30;;
8066;SDS011;4076;48.076;9.118;2022-10-31T04:40:03;6.43;;;2.87;;
8066;SDS011;4076;48.076;9.118;2022-10-31T04:42:29;3.83;;;2.77;;
8066;SDS011;4076;48.076;9.118;2022-10-31T04:44:55;5.07;;;2.60;;
8066;SDS011;4076;48.076;9.118;2022-10-31T04:47:21;4.67;;;2.40;;
8066;SDS011;4076;48.076;9.118;2022-10-31T04:49:46;3.60;;;2.77;;
8066;SDS011;4076;48.076;9.118;2022-10-31T04:52:12;8.13;;;4.03;;
8066;SDS011;4076;48.076;9.118;2022-10-31T04:54:38;4.13;;;3.00;;
8066;SDS011;4076;48.076;9.118;2022-10-31T04:57:03;4.70;;;2.93;;
8066;SDS011;4076;48.076;9.118;2022-10-31T04:59:29;4.67;;;2.13;;
8066;SDS011;4076;48.076;9.118;2022-10-31T05:01:54;3.33;;;2.37;;
8066;SDS011;4076;48.076;9.118;2022-10-31T05:04:20;4.83;;;3.00;;
8066;SDS011;4076;48.076;9.118;2022-10-31T05:06:45;6.33;;;3.53;;
8066;SDS011;4076;48.076;9.118;2022-10-31T05:09:11;6.50;;;3.17;;
8066;SDS011;4076;48.076;9.118;2022-10-31T05:11:36;3.63;;;2.67;;
8066;SDS011;4076;48.076;9.118;2022-10-31T05:14:02;5.87;;;2.70;;
8066;SDS011;4076;48.076;9.118;2022-10-31T05:16:28;5.40;;;2.70;;
8066;SDS011;4076;48.076;9.118;2022-10-31T05:18:53;3.70;;;2.37;;
8066;SDS011;4076;48.076;9.118;2022-10-31T05:21:19;4.93;;;2.10;;
8066;SDS011;4076;48.076;9.118;2022-10-31T05:23:44;4.43;;;2.70;;
8066;SDS011;4076;48.076;9.118;2022-10-31T05:26:10;6.00;;;3.50;;
8066;SDS011;4076;48.076;9.118;2022-10-31T05:28:35;3.87;;;1.97;;
8066;SDS011;4076;48.076;9.118;2022-10-31T05:31:01;6.63;;;2.30;;
8066;SDS011;4076;48.076;9.118;2022-10-31T05:33:26;4.00;;;2.10;;
8066;SDS011;4076;48.076;9.118;2022-10-31T05:35:52;2.70;;;1.87;;
8066;SDS011;4076;48.076;9.118;2022-10-31T05:38:18;5.53;;;2.70;;
8066;SDS011;4076;48.076;9.118;2022-10-31T05:40:43;5.43;;;2.30;;
8066;SDS011;4076;48.076;9.118;2022-10-31T05:43:09;6.77;;;2.77;;
8066;SDS011;4076;48.076;9.118;2022-10-31T05:45:34;8.33;;;2.63;;
8066;SDS011;4076;48.076;9.118;2022-10-31T05:48:00;4.10;;;2.30;;
8066;SDS011;4076;48.076;9.118;2022-10-31T05:50:27;4.30;;;3.00;;
8066;SDS011;4076;48.076;9.118;2022-10-31T05:52:55;7.13;;;3.43;;
8066;SDS011;4076;48.076;9.118;2022-10-31T05:55:25;5.53;;;3.60;;
8066;SDS011;4076;48.076;9.118;2022-10-31T05:57:51;4.27;;;2.37;;
8066;SDS011;4076;48.076;9.118;2022-10-31T06:00:18;4.70;;;2.30;;
8066;SDS011;4076;48.076;9.118;2022-10-31T06:02:44;3.50;;;1.83;;
8066;SDS011;4076;48.076;9.118;2022-10-31T06:05:09;4.47;;;3.60;;
8066;SDS011;4076;48.076;9.118;2022-10-31T06:07:35;5.10;;;2.83;;
8066;SDS011;4076;48.076;9.118;2022-10-31T06:10:02;5.47;;;2.90;;
8066;SDS011;4076;48.076;9.118;2022-10-31T06:12:29;3.50;;;2.40;;
8066;SDS011;4076;48.076;9.118;2022-10-31T06:14:54;4.63;;;2.40;;
8066;SDS011;4076;48.076;9.118;2022-10-31T06:17:20;4.30;;;2.80;;
8066;SDS011;4076;48.076;9.118;2022-10-31T06:19:46;4.07;;;2.97;;
8066;SDS011;4076;48.076;9.118;2022-10-31T06:22:11;4.93;;;2.93;;
8066;SDS011;4076;48.076;9.118;2022-10-31T06:24:37;5.77;;;3.30;;
8066;SDS011;4076;48.076;9.118;2022-10-31T06:27:03;7.97;;;2.80;;
8066;SDS011;4076;48.076;9.118;2022-10-31T06:29:29;6.53;;;2.23;;
8066;SDS011;4076;48.076;9.118;2022-10-31T06:31:54;8.23;;;4.67;;
8066;SDS011;4076;48.076;9.118;2022-10-31T06:34:20;5.00;;;3.43;;
8066;SDS011;4076;48.076;9.118;2022-10-31T06:36:46;7.00;;;4.23;;
8066;SDS011;4076;48.076;9.118;2022-10-31T06:39:12;4.60;;;2.93;;
8066;SDS011;4076;48.076;9.118;2022-10-31T06:41:37;4.30;;;2.67;;
8066;SDS011;4076;48.076;9.118;2022-10-31T06:44:04;4.90;;;2.93;;
8066;SDS011;4076;48.076;9.118;2022-10-31T06:46:30;9.23;;;3.77;;
8066;SDS011;4076;48.076;9.118;2022-10-31T06:48:56;4.13;;;2.47;;
8066;SDS011;4076;48.076;9.118;2022-10-31T06:51:21;3.40;;;2.40;;
8066;SDS011;4076;48.076;9.118;2022-10-31T06:53:47;3.10;;;1.90;;
8066;SDS011;4076;48.076;9.118;2022-10-31T06:56:13;3.67;;;2.37;;
8066;SDS011;4076;48.076;9.118;2022-10-31T06:58:38;5.27;;;2.37;;
8066;SDS011;4076;48.076;9.118;2022-10-31T07:01:04;7.40;;;4.20;;
8066;SDS011;4076;48.076;9.118;2022-10-31T07:03:29;4.53;;;3.73;;
8066;SDS011;4076;48.076;9.118;2022-10-31T07:05:55;5.77;;;4.33;;
8066;SDS011;4076;48.076;9.118;2022-10-31T07:08:21;5.20;;;4.57;;
8066;SDS011;4076;48.076;9.118;2022-10-31T07:10:52;6.10;;;3.60;;
8066;SDS011;4076;48.076;9.118;2022-10-31T07:13:18;12.03;;;3.50;;
8066;SDS011;4076;48.076;9.118;2022-10-31T07:15:49;6.83;;;3.80;;
8066;SDS011;4076;48.076;9.118;2022-10-31T07:18:15;5.47;;;3.40;;
8066;SDS011;4076;48.076;9.118;2022-10-31T07:20:40;7.93;;;2.63;;
8066;SDS011;4076;48.076;9.118;2022-10-31T07:23:07;3.83;;;2.40;;
8066;SDS011;4076;48.076;9.118;2022-10-31T07:25:34;5.33;;;2.90;;
8066;SDS011;4076;48.076;9.118;2022-10-31T07:28:00;5.43;;;2.97;;
8066;SDS011;4076;48.076;9.118;2022-10-31T07:30:25;4.80;;;2.33;;
8066;SDS011;4076;48.076;9.118;2022-10-31T07:32:51;4.53;;;2.63;;
8066;SDS011;4076;48.076;9.118;2022-10-31T07:35:18;6.60;;;2.73;;
8066;SDS011;4076;48.076;9.118;2022-10-31T07:37:45;3.90;;;2.30;;
8066;SDS011;4076;48.076;9.118;2022-10-31T07:40:10;7.17;;;3.10;;
8066;SDS011;4076;48.076;9.118;2022-10-31T07:45:04;5.43;;;2.60;;
8066;SDS011;4076;48.076;9.118;2022-10-31T07:47:41;4.20;;;2.17;;
8066;SDS011;4076;48.076;9.118;2022-10-31T07:50:08;3.57;;;2.40;;
8066;SDS011;4076;48.076;9.118;2022-10-31T07:52:35;3.63;;;2.70;;
8066;SDS011;4076;48.076;9.118;2022-10-31T07:55:01;3.50;;;3.10;;
8066;SDS011;4076;48.076;9.118;2022-10-31T07:57:27;5.80;;;2.90;;
8066;SDS011;4076;48.076;9.118;2022-10-31T07:59:53;7.03;;;3.27;;
8066;SDS011;4076;48.076;9.118;2022-10-31T08:02:18;3.93;;;3.17;;
8066;SDS011;4076;48.076;9.118;2022-10-31T08:04:44;4.07;;;2.63;;
8066;SDS011;4076;48.076;9.118;2022-10-31T08:07:09;5.43;;;2.73;;
8066;SDS011;4076;48.076;9.118;2022-10-31T08:09:35;6.17;;;2.57;;
8066;SDS011;4076;48.076;9.118;2022-10-31T08:12:01;3.97;;;2.87;;
8066;SDS011;4076;48.076;9.118;2022-10-31T08:14:26;5.43;;;3.07;;
8066;SDS011;4076;48.076;9.118;2022-10-31T08:16:53;4.63;;;3.13;;
8066;SDS011;4076;48.076;9.118;2022-10-31T08:19:18;6.60;;;3.77;;
8066;SDS011;4076;48.076;9.118;2022-10-31T08:21:44;6.90;;;2.70;;
8066;SDS011;4076;48.076;9.118;2022-10-31T08:24:09;4.93;;;2.77;;
8066;SDS011;4076;48.076;9.118;2022-10-31T08:26:35;4.33;;;3.47;;
8066;SDS011;4076;48.076;9.118;2022-10-31T08:29:01;7.80;;;2.60;;
8066;SDS011;4076;48.076;9.118;2022-10-31T08:31:27;5.17;;;3.00;;
8066;SDS011;4076;48.076;9.118;2022-10-31T08:33:53;5.67;;;2.17;;
8066;SDS011;4076;48.076;9.118;2022-10-31T08:36:19;5.57;;;2.60;;
8066;SDS011;4076;48.076;9.118;2022-10-31T08:38:46;3.07;;;2.10;;
8066;SDS011;4076;48.076;9.118;2022-10-31T08:41:12;3.90;;;2.40;;
8066;SDS011;4076;48.076;9.118;2022-10-31T08:43:37;4.43;;;3.10;;
8066;SDS011;4076;48.076;9.118;2022-10-31T08:46:03;6.40;;;3.00;;
8066;SDS011;4076;48.076;9.118;2022-10-31T08:48:29;7.30;;;3.83;;
8066;SDS011;4076;48.076;9.118;2022-10-31T08:50:56;4.97;;;3.17;;
8066;SDS011;4076;48.076;9.118;2022-10-31T08:53:25;5.07;;;2.33;;
8066;SDS011;4076;48.076;9.118;2022-10-31T08:55:53;4.27;;;2.83;;
8066;SDS011;4076;48.076;9.118;2022-10-31T08:58:20;4.07;;;2.87;;
8066;SDS011;4076;48.076;9.118;2022-10-31T09:00:46;6.37;;;3.13;;
8066;SDS011;4076;48.076;9.118;2022-10-31T09:03:15;3.70;;;2.47;;
8066;SDS011;4076;48.076;9.118;2022-10-31T09:06:02;4.00;;;2.80;;
8066;SDS011;4076;48.076;9.118;2022-10-31T09:08:30;2.57;;;1.93;;
8066;SDS011;4076;48.076;9.118;2022-10-31T09:10:57;6.60;;;3.07;;
8066;SDS011;4076;48.076;9.118;2022-10-31T09:13:23;4.10;;;2.90;;
8066;SDS011;4076;48.076;9.118;2022-10-31T09:15:49;7.73;;;2.67;;
8066;SDS011;4076;48.076;9.118;2022-10-31T09:18:16;5.10;;;3.00;;
8066;SDS011;4076;48.076;9.118;2022-10-31T09:20:43;8.53;;;3.07;;
8066;SDS011;4076;48.076;9.118;2022-10-31T09:23:11;3.40;;;2.80;;
8066;SDS011;4076;48.076;9.118;2022-10-31T09:25:42;3.83;;;2.33;;
8066;SDS011;4076;48.076;9.118;2022-10-31T09:28:09;6.10;;;2.77;;
8066;SDS011;4076;48.076;9.118;2022-10-31T09:30:38;7.23;;;4.10;;
8066;SDS011;4076;48.076;9.118;2022-10-31T09:33:05;4.30;;;2.33;;
8066;SDS011;4076;48.076;9.118;2022-10-31T09:35:33;6.03;;;3.80;;
8066;SDS011;4076;48.076;9.118;2022-10-31T09:38:00;3.00;;;1.90;;
8066;SDS011;4076;48.076;9.118;2022-10-31T09:40:31;5.10;;;3.67;;
8066;SDS011;4076;48.076;9.118;2022-10-31T09:43:07;5.53;;;3.10;;
8066;SDS011;4076;48.076;9.118;2022-10-31T09:46:06;8.77;;;4.30;;
8066;SDS011;4076;48.076;9.118;2022-10-31T09:48:51;4.17;;;3.27;;
8066;SDS011;4076;48.076;9.118;2022-10-31T09:51:29;5.87;;;3.30;;
8066;SDS011;4076;48.076;9.118;2022-10-31T09:57:18;5.10;;;3.00;;
8066;SDS011;4076;48.076;9.118;2022-10-31T09:59:49;4.67;;;3.80;;
8066;SDS011;4076;48.076;9.118;2022-10-31T10:05:49;4.53;;;3.30;;
8066;SDS011;4076;48.076;9.118;2022-10-31T10:08:19;13.97;;;4.03;;
8066;SDS011;4076;48.076;9.118;2022-10-31T10:10:49;4.53;;;3.60;;
8066;SDS011;4076;48.076;9.118;2022-10-31T10:18:55;7.17;;;4.17;;
8066;SDS011;4076;48.076;9.118;2022-10-31T10:24:40;5.90;;;3.37;;
8066;SDS011;4076;48.076;9.118;2022-10-31T10:30:35;8.30;;;5.57;;
8066;SDS011;4076;48.076;9.118;2022-10-31T10:33:11;19.17;;;5.67;;
8066;SDS011;4076;48.076;9.118;2022-10-31T10:40:42;8.47;;;4.03;;
8066;SDS011;4076;48.076;9.118;2022-10-31T10:46:00;7.80;;;5.67;;
8066;SDS011;4076;48.076;9.118;2022-10-31T10:49:02;13.40;;;5.73;;
8066;SDS011;4076;48.076;9.118;2022-10-31T11:00:19;8.23;;;6.23;;
8066;SDS011;4076;48.076;9.118;2022-10-31T11:02:48;11.60;;;7.00;;
8066;SDS011;4076;48.076;9.118;2022-10-31T11:05:21;9.07;;;5.73;;
8066;SDS011;4076;48.076;9.118;2022-10-31T11:07:54;10.93;;;9.77;;
8066;SDS011;4076;48.076;9.118;2022-10-31T11:10:20;8.17;;;6.77;;
8066;SDS011;4076;48.076;9.118;2022-10-31T11:18:30;16.47;;;8.17;;
8066;SDS011;4076;48.076;9.118;2022-10-31T11:20:59;8.93;;;7.40;;
8066;SDS011;4076;48.076;9.118;2022-10-31T11:23:27;8.77;;;7.77;;
8066;SDS011;4076;48.076;9.118;2022-10-31T11:25:55;8.67;;;6.23;;
8066;SDS011;4076;48.076;9.118;2022-10-31T11:28:22;12.33;;;5.80;;
8066;SDS011;4076;48.076;9.118;2022-10-31T11:30:49;7.13;;;5.70;;
8066;SDS011;4076;48.076;9.118;2022-10-31T11:33:19;7.90;;;6.37;;
8066;SDS011;4076;48.076;9.118;2022-10-31T11:35:54;6.30;;;5.70;;
8066;SDS011;4076;48.076;9.118;2022-10-31T11:38:21;6.00;;;4.80;;
8066;SDS011;4076;48.076;9.118;2022-10-31T11:40:52;4.90;;;4.40;;
8066;SDS011;4076;48.076;9.118;2022-10-31T11:43:21;9.53;;;4.13;;
8066;SDS011;4076;48.076;9.118;2022-10-31T11:45:47;15.90;;;8.10;;
8066;SDS011;4076;48.076;9.118;2022-10-31T11:48:15;11.23;;;8.20;;
8066;SDS011;4076;48.076;9.118;2022-10-31T11:50:42;10.17;;;6.03;;
8066;SDS011;4076;48.076;9.118;2022-10-31T11:53:16;11.37;;;6.47;;
8066;SDS011;4076;48.076;9.118;2022-10-31T11:55:44;6.37;;;4.53;;
8066;SDS011;4076;48.076;9.118;2022-10-31T11:58:20;9.63;;;7.47;;
8066;SDS011;4076;48.076;9.118;2022-10-31T12:00:52;11.87;;;7.47;;
8066;SDS011;4076;48.076;9.118;2022-10-31T12:06:01;6.67;;;4.93;;
8066;SDS011;4076;48.076;9.118;2022-10-31T12:08:30;5.70;;;4.27;;
8066;SDS011;4076;48.076;9.118;2022-10-31T12:13:32;7.87;;;6.37;;
8066;SDS011;4076;48.076;9.118;2022-10-31T12:21:42;13.00;;;11.70;;
8066;SDS011;4076;48.076;9.118;2022-10-31T12:25:08;12.80;;;7.63;;
8066;SDS011;4076;48.076;9.118;2022-10-31T12:32:29;10.70;;;6.37;;
8066;SDS011;4076;48.076;9.118;2022-10-31T12:35:13;8.03;;;6.20;;
8066;SDS011;4076;48.076;9.118;2022-10-31T12:38:06;8.70;;;7.20;;
8066;SDS011;4076;48.076;9.118;2022-10-31T12:41:04;7.20;;;5.33;;
8066;SDS011;4076;48.076;9.118;2022-10-31T12:46:13;8.80;;;7.00;;
8066;SDS011;4076;48.076;9.118;2022-10-31T12:49:05;10.03;;;5.60;;
8066;SDS011;4076;48.076;9.118;2022-10-31T12:54:37;10.37;;;5.90;;
8066;SDS011;4076;48.076;9.118;2022-10-31T12:57:23;12.13;;;7.60;;
8066;SDS011;4076;48.076;9.118;2022-10-31T13:00:15;12.93;;;5.43;;
8066;SDS011;4076;48.076;9.118;2022-10-31T13:05:22;8.63;;;7.63;;
8066;SDS011;4076;48.076;9.118;2022-10-31T13:08:00;7.43;;;4.87;;
8066;SDS011;4076;48.076;9.118;2022-10-31T13:13:10;6.80;;;5.73;;
8066;SDS011;4076;48.076;9.118;2022-10-31T13:15:53;6.10;;;4.40;;
8066;SDS011;4076;48.076;9.118;2022-10-31T13:18:28;11.20;;;6.20;;
8066;SDS011;4076;48.076;9.118;2022-10-31T13:20:58;10.70;;;7.43;;
8066;SDS011;4076;48.076;9.118;2022-10-31T13:23:33;13.47;;;6.77;;
8066;SDS011;4076;48.076;9.118;2022-10-31T13:26:07;10.77;;;8.80;;
8066;SDS011;4076;48.076;9.118;2022-10-31T13:28:43;12.77;;;9.23;;
8066;SDS011;4076;48.076;9.118;2022-10-31T13:31:12;14.47;;;7.33;;
8066;SDS011;4076;48.076;9.118;2022-10-31T13:33:48;13.23;;;8.37;;
8066;SDS011;4076;48.076;9.118;2022-10-31T13:44:43;9.37;;;7.07;;
8066;SDS011;4076;48.076;9.118;2022-10-31T13:47:27;18.87;;;9.30;;
8066;SDS011;4076;48.076;9.118;2022-10-31T13:50:18;7.97;;;6.30;;
8066;SDS011;4076;48.076;9.118;2022-10-31T13:52:46;11.83;;;7.70;;
8066;SDS011;4076;48.076;9.118;2022-10-31T13:55:34;13.60;;;9.00;;
8066;SDS011;4076;48.076;9.118;2022-10-31T13:58:00;11.43;;;7.93;;
8066;SDS011;4076;48.076;9.118;2022-10-31T14:00:29;18.07;;;8.77;;
8066;SDS011;4076;48.076;9.118;2022-10-31T14:02:59;12.77;;;8.37;;
8066;SDS011;4076;48.076;9.118;2022-10-31T14:05:26;13.90;;;9.70;;
8066;SDS011;4076;48.076;9.118;2022-10-31T14:07:53;14.30;;;8.03;;
8066;SDS011;4076;48.076;9.118;2022-10-31T14:10:26;11.37;;;7.93;;
8066;SDS011;4076;48.076;9.118;2022-10-31T14:15:52;10.87;;;6.10;;
8066;SDS011;4076;48.076;9.118;2022-10-31T14:18:36;8.93;;;7.93;;
8066;SDS011;4076;48.076;9.118;2022-10-31T14:21:14;10.50;;;7.47;;
8066;SDS011;4076;48.076;9.118;2022-10-31T14:23:48;9.30;;;6.60;;
8066;SDS011;4076;48.076;9.118;2022-10-31T14:29:20;18.50;;;7.80;;
8066;SDS011;4076;48.076;9.118;2022-10-31T14:31:39;10.83;;;7.17;;
8066;SDS011;4076;48.076;9.118;2022-10-31T14:39:59;9.47;;;7.00;;
8066;SDS011;4076;48.076;9.118;2022-10-31T14:51:16;11.20;;;7.77;;
8066;SDS011;4076;48.076;9.118;2022-10-31T14:53:49;78.27;;;57.00;;
8066;SDS011;4076;48.076;9.118;2022-10-31T14:56:25;53.60;;;42.27;;
8066;SDS011;4076;48.076;9.118;2022-10-31T14:58:55;42.23;;;33.50;;
8066;SDS011;4076;48.076;9.118;2022-10-31T15:03:53;22.83;;;11.67;;
8066;SDS011;4076;48.076;9.118;2022-10-31T15:06:25;18.97;;;15.40;;
8066;SDS011;4076;48.076;9.118;2022-10-31T15:08:53;21.70;;;15.73;;
8066;SDS011;4076;48.076;9.118;2022-10-31T15:11:26;15.83;;;11.30;;
8066;SDS011;4076;48.076;9.118;2022-10-31T15:13:55;17.70;;;13.03;;
8066;SDS011;4076;48.076;9.118;2022-10-31T15:16:23;9.07;;;7.30;;
8066;SDS011;4076;48.076;9.118;2022-10-31T15:18:54;12.37;;;5.60;;
8066;SDS011;4076;48.076;9.118;2022-10-31T15:21:22;11.40;;;5.40;;
8066;SDS011;4076;48.076;9.118;2022-10-31T15:23:51;8.90;;;7.00;;
8066;SDS011;4076;48.076;9.118;2022-10-31T15:26:19;11.97;;;5.77;;
8066;SDS011;4076;48.076;9.118;2022-10-31T15:28:56;8.17;;;5.17;;
8066;SDS011;4076;48.076;9.118;2022-10-31T15:31:25;6.10;;;4.90;;
8066;SDS011;4076;48.076;9.118;2022-10-31T15:33:51;6.50;;;4.87;;
8066;SDS011;4076;48.076;9.118;2022-10-31T15:36:23;7.90;;;6.30;;
8066;SDS011;4076;48.076;9.118;2022-10-31T15:38:50;8.07;;;4.70;;
8066;SDS011;4076;48.076;9.118;2022-10-31T15:41:21;4.40;;;3.47;;
8066;SDS011;4076;48.076;9.118;2022-10-31T15:47:01;7.17;;;4.00;;
8066;SDS011;4076;48.076;9.118;2022-10-31T15:51:54;11.73;;;6.83;;
8066;SDS011;4076;48.076;9.118;2022-10-31T15:54:20;15.73;;;7.27;;
8066;SDS011;4076;48.076;9.118;2022-10-31T15:56:46;6.87;;;4.93;;
8066;SDS011;4076;48.076;9.118;2022-10-31T15:59:19;7.27;;;5.30;;
8066;SDS011;4076;48.076;9.118;2022-10-31T16:01:58;5.83;;;4.50;;
8066;SDS011;4076;48.076;9.118;2022-10-31T16:04:25;8.90;;;6.70;;
8066;SDS011;4076;48.076;9.118;2022-10-31T16:09:35;6.00;;;5.17;;
8066;SDS011;4076;48.076;9.118;2022-10-31T16:12:01;7.10;;;5.90;;
8066;SDS011;4076;48.076;9.118;2022-10-31T16:14:29;15.33;;;8.63;;
8066;SDS011;4076;48.076;9.118;2022-10-31T16:17:01;10.47;;;6.77;;
8066;SDS011;4076;48.076;9.118;2022-10-31T16:19:32;5.80;;;5.00;;
8066;SDS011;4076;48.076;9.118;2022-10-31T16:24:29;12.00;;;7.13;;
8066;SDS011;4076;48.076;9.118;2022-10-31T16:27:20;12.60;;;8.67;;
8066;SDS011;4076;48.076;9.118;2022-10-31T16:29:50;18.63;;;8.73;;
8066;SDS011;4076;48.076;9.118;2022-10-31T16:35:23;10.43;;;7.63;;
8066;SDS011;4076;48.076;9.118;2022-10-31T16:37:57;16.87;;;8.27;;
8066;SDS011;4076;48.076;9.118;2022-10-31T16:40:22;11.10;;;6.20;;
8066;SDS011;4076;48.076;9.118;2022-10-31T16:42:48;11.43;;;8.27;;
8066;SDS011;4076;48.076;9.118;2022-10-31T16:45:18;18.40;;;9.90;;
8066;SDS011;4076;48.076;9.118;2022-10-31T16:47:46;16.10;;;8.20;;
8066;SDS011;4076;48.076;9.118;2022-10-31T16:50:22;11.33;;;6.10;;
8066;SDS011;4076;48.076;9.118;2022-10-31T16:52:49;16.07;;;8.17;;
8066;SDS011;4076;48.076;9.118;2022-10-31T16:55:16;10.20;;;7.17;;
8066;SDS011;4076;48.076;9.118;2022-10-31T16:57:44;14.27;;;8.90;;
8066;SDS011;4076;48.076;9.118;2022-10-31T17:00:13;9.40;;;6.60;;
8066;SDS011;4076;48.076;9.118;2022-10-31T17:02:40;13.37;;;9.37;;
8066;SDS011;4076;48.076;9.118;2022-10-31T17:05:08;12.70;;;8.80;;
8066;SDS011;4076;48.076;9.118;2022-10-31T17:07:36;7.27;;;6.40;;
8066;SDS011;4076;48.076;9.118;2022-10-31T17:10:01;10.10;;;7.97;;
8066;SDS011;4076;48.076;9.118;2022-10-31T17:12:27;12.10;;;10.23;;
8066;SDS011;4076;48.076;9.118;2022-10-31T17:14:53;8.70;;;7.03;;
8066;SDS011;4076;48.076;9.118;2022-10-31T17:17:18;12.63;;;8.77;;
8066;SDS011;4076;48.076;9.118;2022-10-31T17:19:44;12.13;;;8.33;;
8066;SDS011;4076;48.076;9.118;2022-10-31T17:22:10;8.90;;;6.33;;
8066;SDS011;4076;48.076;9.118;2022-10-31T17:24:37;14.43;;;7.20;;
8066;SDS011;4076;48.076;9.118;2022-10-31T17:27:02;25.13;;;9.57;;
8066;SDS011;4076;48.076;9.118;2022-10-31T17:29:28;12.30;;;8.63;;
8066;SDS011;4076;48.076;9.118;2022-10-31T17:31:53;8.63;;;7.20;;
8066;SDS011;4076;48.076;9.118;2022-10-31T17:34:19;9.30;;;7.40;;
8066;SDS011;4076;48.076;9.118;2022-10-31T17:36:51;8.80;;;6.60;;
8066;SDS011;4076;48.076;9.118;2022-10-31T17:39:17;8.23;;;6.20;;
8066;SDS011;4076;48.076;9.118;2022-10-31T17:41:44;12.37;;;8.83;;